sensor_id;sensor_type;location;lat;lon;timestamp;P1;durP1;ratioP1;P2;durP2;ratioP2
30874;SDS011;17581;43.222;27.924;2023-07-20T00:01:13;17.85;;;6.22;;
30874;SDS011;17581;43.222;27.924;2023-07-20T00:03:39;18.00;;;5.85;;
30874;SDS011;17581;43.222;27.924;2023-07-20T00:06:04;16.42;;;6.93;;
30874;SDS011;17581;43.222;27.924;2023-07-20T00:08:30;24.20;;;5.60;;
30874;SDS011;17581;43.222;27.924;2023-07-20T00:10:55;20.23;;;6.63;;
30874;SDS011;17581;43.222;27.924;2023-07-20T00:13:21;18.48;;;6.95;;
30874;SDS011;17581;43.222;27.924;2023-07-20T00:15:47;21.08;;;6.65;;
30874;SDS011;17581;43.222;27.924;2023-07-20T00:18:12;15.55;;;6.88;;
30874;SDS011;17581;43.222;27.924;2023-07-20T00:20:38;20.77;;;7.28;;
30874;SDS011;17581;43.222;27.924;2023-07-20T00:23:04;14.35;;;5.63;;
30874;SDS011;17581;43.222;27.924;2023-07-20T00:25:30;27.58;;;6.00;;
30874;SDS011;17581;43.222;27.924;2023-07-20T00:27:55;16.35;;;6.82;;
30874;SDS011;17581;43.222;27.924;2023-07-20T00:30:21;15.68;;;5.90;;
30874;SDS011;17581;43.222;27.924;2023-07-20T00:32:46;13.60;;;7.38;;
30874;SDS011;17581;43.222;27.924;2023-07-20T00:35:12;15.35;;;7.28;;
30874;SDS011;17581;43.222;27.924;2023-07-20T00:37:39;18.67;;;6.97;;
30874;SDS011;17581;43.222;27.924;2023-07-20T00:40:04;11.50;;;6.05;;
30874;SDS011;17581;43.222;27.924;2023-07-20T00:42:32;15.55;;;5.40;;
30874;SDS011;17581;43.222;27.924;2023-07-20T00:44:58;11.63;;;6.53;;
30874;SDS011;17581;43.222;27.924;2023-07-20T00:47:23;22.67;;;6.93;;
30874;SDS011;17581;43.222;27.924;2023-07-20T00:49:49;18.05;;;6.53;;
30874;SDS011;17581;43.222;27.924;2023-07-20T00:52:16;15.48;;;8.48;;
30874;SDS011;17581;43.222;27.924;2023-07-20T00:54:43;9.85;;;6.35;;
30874;SDS011;17581;43.222;27.924;2023-07-20T00:57:09;21.85;;;7.03;;
30874;SDS011;17581;43.222;27.924;2023-07-20T00:59:35;20.67;;;6.95;;
30874;SDS011;17581;43.222;27.924;2023-07-20T01:02:01;10.02;;;6.20;;
30874;SDS011;17581;43.222;27.924;2023-07-20T01:04:27;18.65;;;6.88;;
30874;SDS011;17581;43.222;27.924;2023-07-20T01:09:45;18.85;;;6.32;;
30874;SDS011;17581;43.222;27.924;2023-07-20T01:14:55;30.55;;;7.53;;
30874;SDS011;17581;43.222;27.924;2023-07-20T01:17:21;22.55;;;6.28;;
30874;SDS011;17581;43.222;27.924;2023-07-20T01:19:47;10.88;;;6.60;;
30874;SDS011;17581;43.222;27.924;2023-07-20T01:30:48;29.45;;;7.45;;
30874;SDS011;17581;43.222;27.924;2023-07-20T01:33:20;18.58;;;6.65;;
30874;SDS011;17581;43.222;27.924;2023-07-20T01:35:50;24.05;;;7.07;;
30874;SDS011;17581;43.222;27.924;2023-07-20T01:38:19;13.20;;;7.15;;
30874;SDS011;17581;43.222;27.924;2023-07-20T01:40:46;11.90;;;5.55;;
30874;SDS011;17581;43.222;27.924;2023-07-20T01:43:12;15.10;;;6.65;;
30874;SDS011;17581;43.222;27.924;2023-07-20T01:45:38;8.38;;;5.68;;
30874;SDS011;17581;43.222;27.924;2023-07-20T01:48:04;11.10;;;5.32;;
30874;SDS011;17581;43.222;27.924;2023-07-20T01:50:30;8.95;;;5.57;;
30874;SDS011;17581;43.222;27.924;2023-07-20T01:52:55;22.15;;;6.72;;
30874;SDS011;17581;43.222;27.924;2023-07-20T01:55:22;30.98;;;8.70;;
30874;SDS011;17581;43.222;27.924;2023-07-20T01:57:47;12.88;;;7.82;;
30874;SDS011;17581;43.222;27.924;2023-07-20T02:00:13;11.68;;;7.85;;
30874;SDS011;17581;43.222;27.924;2023-07-20T02:02:39;9.75;;;6.90;;
30874;SDS011;17581;43.222;27.924;2023-07-20T02:05:04;12.52;;;7.90;;
30874;SDS011;17581;43.222;27.924;2023-07-20T02:07:30;20.73;;;8.43;;
30874;SDS011;17581;43.222;27.924;2023-07-20T02:09:56;22.42;;;7.72;;
30874;SDS011;17581;43.222;27.924;2023-07-20T02:12:21;13.43;;;7.88;;
30874;SDS011;17581;43.222;27.924;2023-07-20T02:14:47;16.38;;;6.85;;
30874;SDS011;17581;43.222;27.924;2023-07-20T02:17:12;11.63;;;7.53;;
30874;SDS011;17581;43.222;27.924;2023-07-20T02:19:38;20.02;;;7.05;;
30874;SDS011;17581;43.222;27.924;2023-07-20T02:22:05;15.13;;;6.53;;
30874;SDS011;17581;43.222;27.924;2023-07-20T02:24:32;9.30;;;5.95;;
30874;SDS011;17581;43.222;27.924;2023-07-20T02:26:58;8.00;;;6.25;;
30874;SDS011;17581;43.222;27.924;2023-07-20T02:29:23;11.23;;;6.07;;
30874;SDS011;17581;43.222;27.924;2023-07-20T02:31:49;9.25;;;6.55;;
30874;SDS011;17581;43.222;27.924;2023-07-20T02:34:14;10.57;;;6.15;;
30874;SDS011;17581;43.222;27.924;2023-07-20T02:36:39;12.50;;;6.47;;
30874;SDS011;17581;43.222;27.924;2023-07-20T02:39:07;15.18;;;6.55;;
30874;SDS011;17581;43.222;27.924;2023-07-20T02:41:36;10.68;;;6.93;;
30874;SDS011;17581;43.222;27.924;2023-07-20T02:44:01;13.38;;;6.40;;
30874;SDS011;17581;43.222;27.924;2023-07-20T02:46:28;14.30;;;7.38;;
30874;SDS011;17581;43.222;27.924;2023-07-20T02:48:55;17.75;;;7.43;;
30874;SDS011;17581;43.222;27.924;2023-07-20T02:51:20;16.73;;;7.32;;
30874;SDS011;17581;43.222;27.924;2023-07-20T02:53:46;15.95;;;7.97;;
30874;SDS011;17581;43.222;27.924;2023-07-20T02:56:11;15.63;;;9.25;;
30874;SDS011;17581;43.222;27.924;2023-07-20T02:58:39;11.07;;;8.45;;
30874;SDS011;17581;43.222;27.924;2023-07-20T03:01:08;17.10;;;8.85;;
30874;SDS011;17581;43.222;27.924;2023-07-20T03:03:34;17.77;;;9.60;;
30874;SDS011;17581;43.222;27.924;2023-07-20T03:06:04;14.60;;;9.70;;
30874;SDS011;17581;43.222;27.924;2023-07-20T03:08:34;15.98;;;8.32;;
30874;SDS011;17581;43.222;27.924;2023-07-20T03:11:01;18.15;;;8.00;;
30874;SDS011;17581;43.222;27.924;2023-07-20T03:13:26;26.30;;;8.88;;
30874;SDS011;17581;43.222;27.924;2023-07-20T03:15:52;15.68;;;7.63;;
30874;SDS011;17581;43.222;27.924;2023-07-20T03:18:18;29.75;;;8.90;;
30874;SDS011;17581;43.222;27.924;2023-07-20T03:20:44;18.17;;;9.68;;
30874;SDS011;17581;43.222;27.924;2023-07-20T03:23:10;30.95;;;8.57;;
30874;SDS011;17581;43.222;27.924;2023-07-20T03:25:35;20.48;;;7.95;;
30874;SDS011;17581;43.222;27.924;2023-07-20T03:28:02;18.27;;;8.18;;
30874;SDS011;17581;43.222;27.924;2023-07-20T03:30:28;29.42;;;8.90;;
30874;SDS011;17581;43.222;27.924;2023-07-20T03:32:53;26.00;;;7.55;;
30874;SDS011;17581;43.222;27.924;2023-07-20T03:35:19;25.15;;;9.10;;
30874;SDS011;17581;43.222;27.924;2023-07-20T03:37:44;23.92;;;9.02;;
30874;SDS011;17581;43.222;27.924;2023-07-20T03:40:10;23.73;;;8.32;;
30874;SDS011;17581;43.222;27.924;2023-07-20T03:42:35;34.75;;;9.65;;
30874;SDS011;17581;43.222;27.924;2023-07-20T03:45:01;31.48;;;9.60;;
30874;SDS011;17581;43.222;27.924;2023-07-20T03:47:28;35.38;;;8.40;;
30874;SDS011;17581;43.222;27.924;2023-07-20T03:49:53;37.47;;;9.57;;
30874;SDS011;17581;43.222;27.924;2023-07-20T03:52:19;31.45;;;9.40;;
30874;SDS011;17581;43.222;27.924;2023-07-20T03:54:44;36.72;;;9.82;;
30874;SDS011;17581;43.222;27.924;2023-07-20T03:57:10;50.95;;;9.52;;
30874;SDS011;17581;43.222;27.924;2023-07-20T03:59:36;35.28;;;9.40;;
30874;SDS011;17581;43.222;27.924;2023-07-20T04:02:02;38.92;;;9.73;;
30874;SDS011;17581;43.222;27.924;2023-07-20T04:04:30;41.17;;;9.02;;
30874;SDS011;17581;43.222;27.924;2023-07-20T04:06:56;36.60;;;9.35;;
30874;SDS011;17581;43.222;27.924;2023-07-20T04:09:22;35.00;;;10.98;;
30874;SDS011;17581;43.222;27.924;2023-07-20T04:11:47;30.40;;;12.13;;
30874;SDS011;17581;43.222;27.924;2023-07-20T04:14:13;18.80;;;11.50;;
30874;SDS011;17581;43.222;27.924;2023-07-20T04:16:38;34.05;;;11.00;;
30874;SDS011;17581;43.222;27.924;2023-07-20T04:19:03;23.65;;;8.95;;
30874;SDS011;17581;43.222;27.924;2023-07-20T04:21:29;32.03;;;9.57;;
30874;SDS011;17581;43.222;27.924;2023-07-20T04:23:54;34.72;;;11.27;;
30874;SDS011;17581;43.222;27.924;2023-07-20T04:26:20;53.75;;;12.15;;
30874;SDS011;17581;43.222;27.924;2023-07-20T04:28:45;51.60;;;12.85;;
30874;SDS011;17581;43.222;27.924;2023-07-20T04:31:12;48.60;;;10.77;;
30874;SDS011;17581;43.222;27.924;2023-07-20T04:33:39;37.53;;;9.73;;
30874;SDS011;17581;43.222;27.924;2023-07-20T04:36:04;41.03;;;12.43;;
30874;SDS011;17581;43.222;27.924;2023-07-20T04:38:30;45.75;;;10.98;;
30874;SDS011;17581;43.222;27.924;2023-07-20T04:40:56;35.50;;;8.90;;
30874;SDS011;17581;43.222;27.924;2023-07-20T04:43:22;36.72;;;9.98;;
30874;SDS011;17581;43.222;27.924;2023-07-20T04:45:47;31.10;;;9.32;;
30874;SDS011;17581;43.222;27.924;2023-07-20T04:48:13;37.92;;;10.50;;
30874;SDS011;17581;43.222;27.924;2023-07-20T04:50:40;50.00;;;10.40;;
30874;SDS011;17581;43.222;27.924;2023-07-20T04:53:06;36.83;;;11.25;;
30874;SDS011;17581;43.222;27.924;2023-07-20T04:55:33;29.58;;;9.70;;
30874;SDS011;17581;43.222;27.924;2023-07-20T04:57:59;40.58;;;9.13;;
30874;SDS011;17581;43.222;27.924;2023-07-20T05:00:26;59.28;;;9.35;;
30874;SDS011;17581;43.222;27.924;2023-07-20T05:02:51;39.55;;;13.00;;
30874;SDS011;17581;43.222;27.924;2023-07-20T05:05:17;46.10;;;8.40;;
30874;SDS011;17581;43.222;27.924;2023-07-20T05:07:42;43.05;;;8.77;;
30874;SDS011;17581;43.222;27.924;2023-07-20T05:10:08;54.67;;;10.55;;
30874;SDS011;17581;43.222;27.924;2023-07-20T05:12:33;40.85;;;8.63;;
30874;SDS011;17581;43.222;27.924;2023-07-20T05:14:59;54.03;;;11.27;;
30874;SDS011;17581;43.222;27.924;2023-07-20T05:17:24;38.13;;;9.15;;
30874;SDS011;17581;43.222;27.924;2023-07-20T05:19:50;50.67;;;9.65;;
30874;SDS011;17581;43.222;27.924;2023-07-20T05:22:15;47.05;;;9.38;;
30874;SDS011;17581;43.222;27.924;2023-07-20T05:24:41;41.03;;;10.10;;
30874;SDS011;17581;43.222;27.924;2023-07-20T05:27:07;51.33;;;10.50;;
30874;SDS011;17581;43.222;27.924;2023-07-20T05:29:32;35.05;;;9.68;;
30874;SDS011;17581;43.222;27.924;2023-07-20T05:31:58;42.53;;;9.48;;
30874;SDS011;17581;43.222;27.924;2023-07-20T05:34:23;36.63;;;8.90;;
30874;SDS011;17581;43.222;27.924;2023-07-20T05:36:49;29.65;;;8.65;;
30874;SDS011;17581;43.222;27.924;2023-07-20T05:39:16;44.60;;;9.38;;
30874;SDS011;17581;43.222;27.924;2023-07-20T05:41:42;42.50;;;7.90;;
30874;SDS011;17581;43.222;27.924;2023-07-20T05:44:08;34.47;;;9.32;;
30874;SDS011;17581;43.222;27.924;2023-07-20T05:46:33;30.27;;;8.13;;
30874;SDS011;17581;43.222;27.924;2023-07-20T05:48:58;20.73;;;7.50;;
30874;SDS011;17581;43.222;27.924;2023-07-20T05:51:24;31.30;;;8.05;;
30874;SDS011;17581;43.222;27.924;2023-07-20T05:53:49;33.38;;;8.15;;
30874;SDS011;17581;43.222;27.924;2023-07-20T05:56:15;52.13;;;9.38;;
30874;SDS011;17581;43.222;27.924;2023-07-20T05:58:40;55.75;;;13.93;;
30874;SDS011;17581;43.222;27.924;2023-07-20T06:01:06;33.58;;;9.85;;
30874;SDS011;17581;43.222;27.924;2023-07-20T06:03:31;89.72;;;27.38;;
30874;SDS011;17581;43.222;27.924;2023-07-20T06:06:01;53.67;;;9.50;;
30874;SDS011;17581;43.222;27.924;2023-07-20T06:08:28;52.42;;;11.77;;
30874;SDS011;17581;43.222;27.924;2023-07-20T06:10:54;60.50;;;12.50;;
30874;SDS011;17581;43.222;27.924;2023-07-20T06:13:19;31.27;;;8.40;;
30874;SDS011;17581;43.222;27.924;2023-07-20T06:15:45;37.20;;;8.57;;
30874;SDS011;17581;43.222;27.924;2023-07-20T06:18:11;24.88;;;9.05;;
30874;SDS011;17581;43.222;27.924;2023-07-20T06:20:36;45.10;;;8.90;;
30874;SDS011;17581;43.222;27.924;2023-07-20T06:23:01;28.35;;;8.88;;
30874;SDS011;17581;43.222;27.924;2023-07-20T06:25:27;22.10;;;9.15;;
30874;SDS011;17581;43.222;27.924;2023-07-20T06:27:55;40.58;;;9.88;;
30874;SDS011;17581;43.222;27.924;2023-07-20T06:30:21;40.38;;;9.70;;
30874;SDS011;17581;43.222;27.924;2023-07-20T06:32:46;37.17;;;7.32;;
30874;SDS011;17581;43.222;27.924;2023-07-20T06:35:12;45.90;;;7.47;;
30874;SDS011;17581;43.222;27.924;2023-07-20T06:37:38;31.00;;;5.43;;
30874;SDS011;17581;43.222;27.924;2023-07-20T06:40:03;20.00;;;5.63;;
30874;SDS011;17581;43.222;27.924;2023-07-20T06:42:29;49.30;;;7.72;;
30874;SDS011;17581;43.222;27.924;2023-07-20T06:44:56;23.77;;;6.03;;
30874;SDS011;17581;43.222;27.924;2023-07-20T06:47:22;13.30;;;4.90;;
30874;SDS011;17581;43.222;27.924;2023-07-20T06:49:48;36.13;;;5.82;;
30874;SDS011;17581;43.222;27.924;2023-07-20T06:52:14;27.73;;;4.85;;
30874;SDS011;17581;43.222;27.924;2023-07-20T06:54:39;26.45;;;6.15;;
30874;SDS011;17581;43.222;27.924;2023-07-20T06:57:05;17.58;;;4.50;;
30874;SDS011;17581;43.222;27.924;2023-07-20T06:59:30;34.60;;;6.28;;
30874;SDS011;17581;43.222;27.924;2023-07-20T07:05:08;40.90;;;6.22;;
30874;SDS011;17581;43.222;27.924;2023-07-20T07:07:33;24.75;;;5.35;;
30874;SDS011;17581;43.222;27.924;2023-07-20T07:09:59;23.73;;;5.60;;
30874;SDS011;17581;43.222;27.924;2023-07-20T07:12:26;16.13;;;4.72;;
30874;SDS011;17581;43.222;27.924;2023-07-20T07:14:51;15.95;;;5.45;;
30874;SDS011;17581;43.222;27.924;2023-07-20T07:17:17;20.73;;;5.32;;
30874;SDS011;17581;43.222;27.924;2023-07-20T07:19:43;43.00;;;7.85;;
30874;SDS011;17581;43.222;27.924;2023-07-20T07:22:09;18.85;;;4.82;;
30874;SDS011;17581;43.222;27.924;2023-07-20T07:24:35;63.60;;;8.20;;
30874;SDS011;17581;43.222;27.924;2023-07-20T07:27:01;91.32;;;12.68;;
30874;SDS011;17581;43.222;27.924;2023-07-20T07:29:27;37.85;;;12.48;;
30874;SDS011;17581;43.222;27.924;2023-07-20T07:31:53;27.80;;;8.57;;
30874;SDS011;17581;43.222;27.924;2023-07-20T07:34:18;59.80;;;11.77;;
30874;SDS011;17581;43.222;27.924;2023-07-20T07:36:44;45.17;;;9.52;;
30874;SDS011;17581;43.222;27.924;2023-07-20T07:39:12;27.60;;;6.80;;
30874;SDS011;17581;43.222;27.924;2023-07-20T07:41:38;43.90;;;7.35;;
30874;SDS011;17581;43.222;27.924;2023-07-20T07:44:04;24.80;;;5.15;;
30874;SDS011;17581;43.222;27.924;2023-07-20T07:46:30;42.45;;;7.60;;
30874;SDS011;17581;43.222;27.924;2023-07-20T07:48:55;21.63;;;6.22;;
30874;SDS011;17581;43.222;27.924;2023-07-20T07:51:21;23.80;;;5.38;;
30874;SDS011;17581;43.222;27.924;2023-07-20T07:53:49;16.42;;;4.57;;
30874;SDS011;17581;43.222;27.924;2023-07-20T07:56:15;14.10;;;4.15;;
30874;SDS011;17581;43.222;27.924;2023-07-20T07:58:41;21.27;;;5.63;;
30874;SDS011;17581;43.222;27.924;2023-07-20T08:01:09;16.10;;;4.38;;
30874;SDS011;17581;43.222;27.924;2023-07-20T08:03:34;22.55;;;5.50;;
30874;SDS011;17581;43.222;27.924;2023-07-20T08:06:01;26.88;;;4.28;;
30874;SDS011;17581;43.222;27.924;2023-07-20T08:08:29;36.47;;;6.63;;
30874;SDS011;17581;43.222;27.924;2023-07-20T08:10:55;35.95;;;6.93;;
30874;SDS011;17581;43.222;27.924;2023-07-20T08:13:21;23.65;;;4.68;;
30874;SDS011;17581;43.222;27.924;2023-07-20T08:15:48;20.42;;;4.82;;
30874;SDS011;17581;43.222;27.924;2023-07-20T08:18:16;28.48;;;5.90;;
30874;SDS011;17581;43.222;27.924;2023-07-20T08:20:45;16.42;;;4.05;;
30874;SDS011;17581;43.222;27.924;2023-07-20T08:23:11;23.95;;;4.50;;
30874;SDS011;17581;43.222;27.924;2023-07-20T08:25:38;16.75;;;4.40;;
30874;SDS011;17581;43.222;27.924;2023-07-20T08:28:07;17.95;;;4.00;;
30874;SDS011;17581;43.222;27.924;2023-07-20T08:30:39;19.80;;;5.40;;
30874;SDS011;17581;43.222;27.924;2023-07-20T08:33:06;19.73;;;5.70;;
30874;SDS011;17581;43.222;27.924;2023-07-20T08:35:32;46.08;;;6.13;;
30874;SDS011;17581;43.222;27.924;2023-07-20T08:37:57;22.05;;;4.53;;
30874;SDS011;17581;43.222;27.924;2023-07-20T08:40:22;9.25;;;3.90;;
30874;SDS011;17581;43.222;27.924;2023-07-20T08:42:48;18.25;;;4.40;;
30874;SDS011;17581;43.222;27.924;2023-07-20T08:45:14;17.00;;;4.93;;
30874;SDS011;17581;43.222;27.924;2023-07-20T08:47:42;27.77;;;10.95;;
30874;SDS011;17581;43.222;27.924;2023-07-20T08:50:10;17.50;;;4.32;;
30874;SDS011;17581;43.222;27.924;2023-07-20T08:52:37;18.88;;;4.63;;
30874;SDS011;17581;43.222;27.924;2023-07-20T08:55:03;17.42;;;5.47;;
30874;SDS011;17581;43.222;27.924;2023-07-20T08:57:29;12.65;;;3.40;;
30874;SDS011;17581;43.222;27.924;2023-07-20T08:59:57;22.23;;;5.47;;
30874;SDS011;17581;43.222;27.924;2023-07-20T09:02:25;15.73;;;4.53;;
30874;SDS011;17581;43.222;27.924;2023-07-20T09:04:52;18.50;;;4.18;;
30874;SDS011;17581;43.222;27.924;2023-07-20T09:07:17;15.25;;;5.07;;
30874;SDS011;17581;43.222;27.924;2023-07-20T09:09:45;13.02;;;4.57;;
30874;SDS011;17581;43.222;27.924;2023-07-20T09:12:13;22.08;;;5.57;;
30874;SDS011;17581;43.222;27.924;2023-07-20T09:14:42;23.20;;;4.95;;
30874;SDS011;17581;43.222;27.924;2023-07-20T09:17:14;20.52;;;5.57;;
30874;SDS011;17581;43.222;27.924;2023-07-20T09:19:46;20.42;;;5.18;;
30874;SDS011;17581;43.222;27.924;2023-07-20T09:22:12;19.40;;;4.95;;
30874;SDS011;17581;43.222;27.924;2023-07-20T09:24:38;17.73;;;5.00;;
30874;SDS011;17581;43.222;27.924;2023-07-20T09:27:04;29.85;;;4.75;;
30874;SDS011;17581;43.222;27.924;2023-07-20T09:29:29;30.95;;;5.50;;
30874;SDS011;17581;43.222;27.924;2023-07-20T09:32:13;20.33;;;5.93;;
30874;SDS011;17581;43.222;27.924;2023-07-20T09:34:44;27.63;;;6.15;;
30874;SDS011;17581;43.222;27.924;2023-07-20T09:37:10;19.85;;;5.32;;
30874;SDS011;17581;43.222;27.924;2023-07-20T09:39:45;16.50;;;4.15;;
30874;SDS011;17581;43.222;27.924;2023-07-20T09:42:13;14.63;;;4.47;;
30874;SDS011;17581;43.222;27.924;2023-07-20T09:44:39;15.35;;;4.38;;
30874;SDS011;17581;43.222;27.924;2023-07-20T09:47:08;28.52;;;6.03;;
30874;SDS011;17581;43.222;27.924;2023-07-20T09:49:38;14.82;;;5.63;;
30874;SDS011;17581;43.222;27.924;2023-07-20T09:52:05;35.67;;;6.22;;
30874;SDS011;17581;43.222;27.924;2023-07-20T09:54:30;23.15;;;5.85;;
30874;SDS011;17581;43.222;27.924;2023-07-20T09:56:57;26.88;;;5.05;;
30874;SDS011;17581;43.222;27.924;2023-07-20T09:59:23;28.15;;;5.78;;
30874;SDS011;17581;43.222;27.924;2023-07-20T10:01:49;15.13;;;5.15;;
30874;SDS011;17581;43.222;27.924;2023-07-20T10:04:14;19.38;;;6.05;;
30874;SDS011;17581;43.222;27.924;2023-07-20T10:06:43;13.73;;;4.95;;
30874;SDS011;17581;43.222;27.924;2023-07-20T10:09:12;17.52;;;5.05;;
30874;SDS011;17581;43.222;27.924;2023-07-20T10:11:41;10.00;;;4.72;;
30874;SDS011;17581;43.222;27.924;2023-07-20T10:14:13;17.77;;;5.05;;
30874;SDS011;17581;43.222;27.924;2023-07-20T10:16:45;20.92;;;4.95;;
30874;SDS011;17581;43.222;27.924;2023-07-20T10:19:17;14.88;;;5.32;;
30874;SDS011;17581;43.222;27.924;2023-07-20T10:21:49;23.70;;;5.22;;
30874;SDS011;17581;43.222;27.924;2023-07-20T10:24:21;28.77;;;6.20;;
30874;SDS011;17581;43.222;27.924;2023-07-20T10:26:48;15.43;;;5.55;;
30874;SDS011;17581;43.222;27.924;2023-07-20T10:29:14;22.85;;;4.50;;
30874;SDS011;17581;43.222;27.924;2023-07-20T10:31:43;24.23;;;6.10;;
30874;SDS011;17581;43.222;27.924;2023-07-20T10:34:09;42.30;;;6.25;;
30874;SDS011;17581;43.222;27.924;2023-07-20T10:36:35;17.63;;;5.50;;
30874;SDS011;17581;43.222;27.924;2023-07-20T10:42:09;23.88;;;6.68;;
30874;SDS011;17581;43.222;27.924;2023-07-20T10:44:38;21.45;;;5.63;;
30874;SDS011;17581;43.222;27.924;2023-07-20T10:47:11;15.65;;;5.32;;
30874;SDS011;17581;43.222;27.924;2023-07-20T10:52:41;31.98;;;6.05;;
30874;SDS011;17581;43.222;27.924;2023-07-20T10:55:10;22.38;;;7.55;;
30874;SDS011;17581;43.222;27.924;2023-07-20T10:58:05;28.25;;;6.25;;
30874;SDS011;17581;43.222;27.924;2023-07-20T11:00:32;26.42;;;6.00;;
30874;SDS011;17581;43.222;27.924;2023-07-20T11:02:58;26.52;;;6.38;;
30874;SDS011;17581;43.222;27.924;2023-07-20T11:05:33;28.17;;;4.93;;
30874;SDS011;17581;43.222;27.924;2023-07-20T11:08:03;28.60;;;6.38;;
30874;SDS011;17581;43.222;27.924;2023-07-20T11:10:29;21.13;;;5.90;;
30874;SDS011;17581;43.222;27.924;2023-07-20T11:15:52;22.80;;;5.80;;
30874;SDS011;17581;43.222;27.924;2023-07-20T11:18:28;31.80;;;6.65;;
30874;SDS011;17581;43.222;27.924;2023-07-20T11:20:54;21.23;;;6.03;;
30874;SDS011;17581;43.222;27.924;2023-07-20T11:23:20;13.23;;;4.43;;
30874;SDS011;17581;43.222;27.924;2023-07-20T11:25:46;20.33;;;6.03;;
30874;SDS011;17581;43.222;27.924;2023-07-20T11:28:11;23.98;;;5.22;;
30874;SDS011;17581;43.222;27.924;2023-07-20T11:30:37;13.50;;;4.93;;
30874;SDS011;17581;43.222;27.924;2023-07-20T11:33:08;19.17;;;5.68;;
30874;SDS011;17581;43.222;27.924;2023-07-20T11:35:43;24.05;;;6.10;;
30874;SDS011;17581;43.222;27.924;2023-07-20T11:38:11;20.27;;;4.97;;
30874;SDS011;17581;43.222;27.924;2023-07-20T11:40:42;33.47;;;5.70;;
30874;SDS011;17581;43.222;27.924;2023-07-20T11:43:08;12.80;;;4.90;;
30874;SDS011;17581;43.222;27.924;2023-07-20T11:45:35;11.55;;;5.55;;
30874;SDS011;17581;43.222;27.924;2023-07-20T11:48:00;24.05;;;4.82;;
30874;SDS011;17581;43.222;27.924;2023-07-20T11:50:26;17.65;;;5.32;;
30874;SDS011;17581;43.222;27.924;2023-07-20T11:52:52;31.38;;;6.40;;
30874;SDS011;17581;43.222;27.924;2023-07-20T11:55:17;21.45;;;5.15;;
30874;SDS011;17581;43.222;27.924;2023-07-20T11:58:00;12.80;;;5.22;;
30874;SDS011;17581;43.222;27.924;2023-07-20T12:00:26;35.17;;;6.97;;
30874;SDS011;17581;43.222;27.924;2023-07-20T12:02:53;23.95;;;6.30;;
30874;SDS011;17581;43.222;27.924;2023-07-20T12:05:18;21.95;;;5.38;;
30874;SDS011;17581;43.222;27.924;2023-07-20T12:07:44;14.57;;;5.38;;
30874;SDS011;17581;43.222;27.924;2023-07-20T12:10:10;25.48;;;6.85;;
30874;SDS011;17581;43.222;27.924;2023-07-20T12:12:40;16.00;;;5.18;;
30874;SDS011;17581;43.222;27.924;2023-07-20T12:15:23;22.65;;;5.97;;
30874;SDS011;17581;43.222;27.924;2023-07-20T12:18:02;30.67;;;5.75;;
30874;SDS011;17581;43.222;27.924;2023-07-20T12:20:37;32.28;;;5.88;;
30874;SDS011;17581;43.222;27.924;2023-07-20T12:23:10;19.67;;;5.75;;
30874;SDS011;17581;43.222;27.924;2023-07-20T12:25:39;29.48;;;6.40;;
30874;SDS011;17581;43.222;27.924;2023-07-20T12:28:09;19.58;;;5.57;;
30874;SDS011;17581;43.222;27.924;2023-07-20T12:30:40;16.88;;;5.20;;
30874;SDS011;17581;43.222;27.924;2023-07-20T12:33:06;23.00;;;5.18;;
30874;SDS011;17581;43.222;27.924;2023-07-20T12:35:32;24.20;;;6.30;;
30874;SDS011;17581;43.222;27.924;2023-07-20T12:37:58;19.75;;;5.32;;
30874;SDS011;17581;43.222;27.924;2023-07-20T12:40:23;17.13;;;5.88;;
30874;SDS011;17581;43.222;27.924;2023-07-20T12:42:49;17.40;;;5.97;;
30874;SDS011;17581;43.222;27.924;2023-07-20T12:45:15;20.65;;;5.65;;
30874;SDS011;17581;43.222;27.924;2023-07-20T12:47:40;25.88;;;5.68;;
30874;SDS011;17581;43.222;27.924;2023-07-20T12:50:08;13.35;;;6.60;;
30874;SDS011;17581;43.222;27.924;2023-07-20T12:52:36;26.58;;;6.57;;
30874;SDS011;17581;43.222;27.924;2023-07-20T12:55:06;25.23;;;6.47;;
30874;SDS011;17581;43.222;27.924;2023-07-20T12:57:36;34.80;;;6.95;;
30874;SDS011;17581;43.222;27.924;2023-07-20T13:00:03;25.48;;;5.15;;
30874;SDS011;17581;43.222;27.924;2023-07-20T13:02:37;20.90;;;6.22;;
30874;SDS011;17581;43.222;27.924;2023-07-20T13:05:06;28.00;;;5.88;;
30874;SDS011;17581;43.222;27.924;2023-07-20T13:07:33;13.65;;;6.00;;
30874;SDS011;17581;43.222;27.924;2023-07-20T13:10:00;30.52;;;5.82;;
30874;SDS011;17581;43.222;27.924;2023-07-20T13:12:29;27.90;;;6.00;;
30874;SDS011;17581;43.222;27.924;2023-07-20T13:14:56;18.80;;;5.70;;
30874;SDS011;17581;43.222;27.924;2023-07-20T13:17:25;40.13;;;6.78;;
30874;SDS011;17581;43.222;27.924;2023-07-20T13:19:51;17.13;;;6.00;;
30874;SDS011;17581;43.222;27.924;2023-07-20T13:22:16;18.88;;;6.47;;
30874;SDS011;17581;43.222;27.924;2023-07-20T13:24:43;33.45;;;6.85;;
30874;SDS011;17581;43.222;27.924;2023-07-20T13:27:10;19.92;;;6.97;;
30874;SDS011;17581;43.222;27.924;2023-07-20T13:29:35;21.13;;;5.57;;
30874;SDS011;17581;43.222;27.924;2023-07-20T13:32:01;16.67;;;5.70;;
30874;SDS011;17581;43.222;27.924;2023-07-20T13:34:28;11.43;;;4.97;;
30874;SDS011;17581;43.222;27.924;2023-07-20T13:36:53;16.20;;;5.70;;
30874;SDS011;17581;43.222;27.924;2023-07-20T13:39:18;14.80;;;6.70;;
30874;SDS011;17581;43.222;27.924;2023-07-20T13:41:44;14.18;;;6.38;;
30874;SDS011;17581;43.222;27.924;2023-07-20T13:44:10;66.15;;;12.65;;
30874;SDS011;17581;43.222;27.924;2023-07-20T13:46:35;24.65;;;6.25;;
30874;SDS011;17581;43.222;27.924;2023-07-20T13:49:01;28.23;;;7.18;;
30874;SDS011;17581;43.222;27.924;2023-07-20T13:51:26;20.95;;;6.45;;
30874;SDS011;17581;43.222;27.924;2023-07-20T13:53:52;18.58;;;6.50;;
30874;SDS011;17581;43.222;27.924;2023-07-20T13:56:17;19.13;;;5.40;;
30874;SDS011;17581;43.222;27.924;2023-07-20T13:58:42;13.02;;;6.20;;
30874;SDS011;17581;43.222;27.924;2023-07-20T14:01:08;27.23;;;6.70;;
30874;SDS011;17581;43.222;27.924;2023-07-20T14:03:33;29.67;;;6.60;;
30874;SDS011;17581;43.222;27.924;2023-07-20T14:05:59;18.77;;;6.20;;
30874;SDS011;17581;43.222;27.924;2023-07-20T14:08:24;15.98;;;5.97;;
30874;SDS011;17581;43.222;27.924;2023-07-20T14:10:51;19.15;;;6.10;;
30874;SDS011;17581;43.222;27.924;2023-07-20T14:13:17;28.65;;;7.50;;
30874;SDS011;17581;43.222;27.924;2023-07-20T14:15:42;26.00;;;6.57;;
30874;SDS011;17581;43.222;27.924;2023-07-20T14:18:08;17.60;;;6.75;;
30874;SDS011;17581;43.222;27.924;2023-07-20T14:20:33;31.75;;;8.38;;
30874;SDS011;17581;43.222;27.924;2023-07-20T14:22:58;29.15;;;7.20;;
30874;SDS011;17581;43.222;27.924;2023-07-20T14:25:24;33.90;;;7.60;;
30874;SDS011;17581;43.222;27.924;2023-07-20T14:27:50;23.55;;;6.47;;
30874;SDS011;17581;43.222;27.924;2023-07-20T14:30:15;31.50;;;8.05;;
30874;SDS011;17581;43.222;27.924;2023-07-20T14:32:41;16.70;;;7.05;;
30874;SDS011;17581;43.222;27.924;2023-07-20T14:35:17;23.90;;;7.40;;
30874;SDS011;17581;43.222;27.924;2023-07-20T14:37:42;16.27;;;6.40;;
30874;SDS011;17581;43.222;27.924;2023-07-20T14:40:08;17.65;;;6.38;;
30874;SDS011;17581;43.222;27.924;2023-07-20T14:42:54;30.20;;;7.25;;
30874;SDS011;17581;43.222;27.924;2023-07-20T14:45:22;14.35;;;6.50;;